Aktualne dane pomiarowe

Uwaga, wersja testowa! Automatyczne pobieranie danych za pomocą narzędzi lub skryptów to umożliwiających jest zabronione.

Dane meteo z obszaru Polski uzyskane na podstawie depesz SYNOP pobieranych co godzinę z NWS. Najedź myszką na symbol przedstawiony w tabeli, aby uzyskać informacje co do jego znaczenia. Prosimy pamiętać, że to testowa wersja strony, która jeszcze nie jest ukończona. Stworzono również jest krótki FAQ dotyczący korzystania z tej podstrony Anomalie temperatury w chwili obecnej odniesione są do okresu referencyjnego 1951-2016. Okres ten będzie później zmieniony na 1981-2010. Kliknij ikonę aby pobrać plik CSV. Kliknij ikonę aby wygenerować mapę synoptyczną dla danego terminu.

Wybierz Datę:    

        

Białystok (12295)

Dane terminowe dla wybranej stacji. Kliknij datę, aby otrzymać dane z tego terminu dla wszystkich stacji.

TemperaturaZachmurzenieWiatrCiśnienieOpadyPogoda
 Data t td wb tx tn tg rh  Nt Nl Cl Cm Ch ws wd g1 g2 wx mslp ppp ch 24h 12h t ww ww w1 w2  
2019-08-09 23:00:00 12.2 11.7 11.8--- 9711.0wx-wx1wx--11015.1 996.8 1.1---wx---
2019-08-09 22:00:00 13.4 13.1 13.1--- 9812.0wx-wx1wx--11014.6 996.4 0.9---------
2019-08-09 21:00:00 12.8 12.5 12.5--- 9811.0wx-wx1wx---1014.4 996.1 1.1---wx---
2019-08-09 20:00:00 13.6 13.0 13.1--- 9611.0wx-wx1wx--11013.9 995.7 1.2---------
2019-08-09 19:00:00 15.2 13.2 13.8--- 8835.0wxwxwxwx1wx--11013.6 995.5 1.0---------
2019-08-09 18:00:00 17.5 13.2 14.6 22.8 16.7- 7650.0wx-wx1wx-1211012.9 995.0 1.6--12wx-w1--
2019-08-09 17:00:00 18.1 12.5 14.5--- 7050.0wxwxwxwx1wx---1012.4 994.5 1.3---------
2019-08-09 16:00:00 18.5 12.9 14.9--- 7045.0wxwxwxwx3wx---1012.4 994.5 1.1---------
2019-08-09 15:00:00 21.3 13.7 16.4--- 6240.0wxwxwx2wx-921011.1 993.4 0.2---wx---
2019-08-09 14:00:00 21.8 12.1 15.8--- 5445.0wxwxwx3wx--31010.8 993.2 -0.2---------
2019-08-09 13:00:00 20.9 11.8 15.3--- 5640.0wxwxwx4wx9941011.1 993.4 -0.3---------
2019-08-09 12:00:00 22.4 12.1 16.1--- 5230.0wxwxwxwx4wx9941010.8 993.2 -0.8- 0.06------
2019-08-09 11:00:00 21.8 12.6 16.1--- 5640.0wxwxwx5wx---1011.0 993.4 -0.6---------
2019-08-09 10:00:00 21.7 12.8 16.1--- 5730.0wxwxwx4wx--41011.4 993.7 -0.1---------
2019-08-09 09:00:00 20.7 12.9 15.8--- 6140.0wxwxwxwx3wx--31011.7 994.0 0.5---------
2019-08-09 08:00:00 19.4 12.9 15.2--- 6635.0wx-wxwx3wx--31011.8 994.0 0.7---------
2019-08-09 07:00:00 17.9 13.2 14.8--- 7435.0wx-wx3wx--31011.7 993.8 0.5---------
2019-08-09 06:00:00 16.7 14.0 14.8 18.2 12.1 11 8435.0wx-wx3wx--31011.5 993.5 0.6 1.1 1.012----- 6.0
2019-08-09 05:00:00 14.9 13.4 13.8--- 9130.0wx-wx2wx--21011.4 993.3 0.4---------
2019-08-09 04:00:00 12.2 12.0 12.0--- 9910.0wx-wxwx1wx--11011.5 993.3 0.0---------
2019-08-09 03:00:00 12.6 12.0 12.1--- 9610.0wx-wx1wx--11011.1 992.9 -0.2---------
2019-08-09 02:00:00 13.7 12.8 13.0--- 9450.0wx-wx2wx--21011.0 992.9 -0.3---------
2019-08-09 01:00:00 14.2 12.6 13.1--- 9050.0wxwxwx2wx---1011.4 993.3 0.3---------
2019-08-09 00:00:00 13.7 12.8 13.0--- 9430.0wxwxwx1wx-1411011.2 993.1 0.8- 1.06wx---
2019-08-08 23:00:00 13.7 12.6 12.9--- 9330.0wxwxwx1wx-1411011.3 993.2 1.0---wx---
2019-08-08 22:00:00 12.8 12.6 12.6--- 9910.0wx-wx1wx--11011.2 993.0 0.9---------
2019-08-08 21:00:00 13.5 12.9 13.0--- 9611.0wx-wx1wx--11010.4 992.3 0.6---------
2019-08-08 20:00:00 14.0 13.2 13.4--- 9519.0wx-1wx---1010.3 992.2 1.1---------
2019-08-08 19:00:00 15.3 13.1 13.8--- 8740.0wx-1wx--11010.1 992.1 1.3---------
2019-08-08 18:00:00 18.2 12.9 14.8 22.9 17.9- 7150.0wxwxwx2wx-1321009.5 991.7 1.3--12------
2019-08-08 17:00:00 20.6 12.0 15.3--- 5850.0wxwxwx3wx-1031008.8 991.1 1.2---------
2019-08-08 16:00:00 21.5 14.2 16.8--- 6335.0wxwxwx5wx10--1008.4 990.8 1.5---------
2019-08-08 15:00:00 21.3 15.2 17.3--- 6828.0wxwxwx4wx---1008.0 990.4 1.5---------
2019-08-08 14:00:00 21.8 15.2 17.5--- 6630.0wxwxwxwx4wx-1041007.5 989.9 1.9---------
2019-08-08 13:00:00 22.4 14.3 17.2--- 6035.0wxwxwx4wx-1341006.8 989.3 1.8---------
2019-08-08 12:00:00 21.9 15.3 17.5--- 6645.0wxwxwx4wx91241006.5 988.9 2.0--6wx-w1w2--
2019-08-08 11:00:00 21.1 15.4 17.3--- 7040.0wxwxwx4wx91241005.6 988.0 1.6---------
2019-08-08 10:00:00 20.1 16.5 17.6--- 8045.0wxwxwx3wx-931005.1 987.5 1.7---------
2019-08-08 09:00:00 18.8 16.9 17.4--- 8926.0wxwxwx4wx-941004.6 986.9 1.5---wx-w1--
2019-08-08 08:00:00 18.2 16.9 17.3--- 9218.0wxwxwx5wx-951004.1 986.4 1.0---------
2019-08-08 07:00:00 18.2 17.4 17.6--- 9526.0wxwxwx4wx--41003.5 985.8 0.4---wx---
2019-08-08 06:00:00 17.9 17.4 17.5 20.0 16.7 15 975.0wxwxwxwx2wx--21003.1 985.4 -0.3 1.2 1.012wx-w1- 5.6
2019-08-08 05:00:00 18.3 18.0 18.1--- 985.0wxwxwx2wx---1003.1 985.4 -1.1---wx-w1--
2019-08-08 04:00:00 17.8 17.6 17.6--- 992.9wxwxwx2wx---1003.1 985.4 -1.2---wx-w1w2--
2019-08-08 03:00:00 17.6 17.3 17.4--- 984.1wxwxwxwx1wx--11003.5 985.7 -1.5---wx-w1--
2019-08-08 02:00:00 17.9 17.4 17.5--- 978.0wxwxwx2wx--21004.3 986.5 -1.0---wx-w1--
2019-08-08 01:00:00 17.6 17.4 17.4--- 9912.0wxwxwxwx1wx--11004.4 986.6 -1.6---------
2019-08-08 00:00:00 17.2 17.0 17.0--- 996.0wxwxwxwx1wx---1005.0 987.2 -1.8---wx---
1.7 ms

 

Print Friendly, PDF & Email